sensor_id;sensor_type;location;lat;lon;timestamp;temperature;humidity
3784;DHT22;1907;49.238;9.262;2022-08-04T00:00:14;22.40;99.90
3784;DHT22;1907;49.238;9.262;2022-08-04T00:03:07;22.30;99.90
3784;DHT22;1907;49.238;9.262;2022-08-04T00:06:20;22.30;99.90
3784;DHT22;1907;49.238;9.262;2022-08-04T00:08:51;22.20;99.90
3784;DHT22;1907;49.238;9.262;2022-08-04T00:11:21;22.10;99.90
3784;DHT22;1907;49.238;9.262;2022-08-04T00:13:57;22.00;99.90
3784;DHT22;1907;49.238;9.262;2022-08-04T00:16:28;21.90;99.90
3784;DHT22;1907;49.238;9.262;2022-08-04T00:19:03;21.90;99.90
3784;DHT22;1907;49.238;9.262;2022-08-04T00:21:30;21.80;99.90
3784;DHT22;1907;49.238;9.262;2022-08-04T00:23:57;21.70;99.90
3784;DHT22;1907;49.238;9.262;2022-08-04T00:26:25;21.60;99.90
3784;DHT22;1907;49.238;9.262;2022-08-04T00:28:52;21.60;99.90
3784;DHT22;1907;49.238;9.262;2022-08-04T00:31:17;21.50;99.90
3784;DHT22;1907;49.238;9.262;2022-08-04T00:33:45;21.50;99.90
3784;DHT22;1907;49.238;9.262;2022-08-04T00:36:11;21.40;99.90
3784;DHT22;1907;49.238;9.262;2022-08-04T00:38:40;21.30;99.90
3784;DHT22;1907;49.238;9.262;2022-08-04T00:41:16;21.20;99.90
3784;DHT22;1907;49.238;9.262;2022-08-04T00:51:51;20.80;99.90
3784;DHT22;1907;49.238;9.262;2022-08-04T00:54:49;20.80;99.90
3784;DHT22;1907;49.238;9.262;2022-08-04T01:00:15;20.80;99.90
3784;DHT22;1907;49.238;9.262;2022-08-04T01:13:54;20.70;99.90
3784;DHT22;1907;49.238;9.262;2022-08-04T01:16:24;20.70;99.90
3784;DHT22;1907;49.238;9.262;2022-08-04T01:19:07;20.60;99.90
3784;DHT22;1907;49.238;9.262;2022-08-04T01:22:12;20.60;99.90
3784;DHT22;1907;49.238;9.262;2022-08-04T01:30:29;20.50;99.90
3784;DHT22;1907;49.238;9.262;2022-08-04T01:33:03;20.50;99.90
3784;DHT22;1907;49.238;9.262;2022-08-04T01:38:33;20.50;99.90
3784;DHT22;1907;49.238;9.262;2022-08-04T01:41:03;20.50;99.90
3784;DHT22;1907;49.238;9.262;2022-08-04T01:43:30;20.50;99.90
3784;DHT22;1907;49.238;9.262;2022-08-04T01:45:58;20.40;99.90
3784;DHT22;1907;49.238;9.262;2022-08-04T01:48:26;20.30;99.90
3784;DHT22;1907;49.238;9.262;2022-08-04T01:50:55;20.20;99.90
3784;DHT22;1907;49.238;9.262;2022-08-04T01:53:23;20.20;99.90
3784;DHT22;1907;49.238;9.262;2022-08-04T01:55:55;20.20;99.90
3784;DHT22;1907;49.238;9.262;2022-08-04T01:58:23;20.10;99.90
3784;DHT22;1907;49.238;9.262;2022-08-04T02:00:57;20.10;99.90
3784;DHT22;1907;49.238;9.262;2022-08-04T02:03:24;20.10;99.90
3784;DHT22;1907;49.238;9.262;2022-08-04T02:05:54;20.10;99.90
3784;DHT22;1907;49.238;9.262;2022-08-04T02:08:47;20.10;99.90
3784;DHT22;1907;49.238;9.262;2022-08-04T02:11:19;20.10;99.90
3784;DHT22;1907;49.238;9.262;2022-08-04T02:14:01;20.00;99.90
3784;DHT22;1907;49.238;9.262;2022-08-04T02:19:32;19.90;99.90
3784;DHT22;1907;49.238;9.262;2022-08-04T02:22:07;19.90;99.90
3784;DHT22;1907;49.238;9.262;2022-08-04T02:24:41;19.80;99.90
3784;DHT22;1907;49.238;9.262;2022-08-04T02:27:07;19.70;99.90
3784;DHT22;1907;49.238;9.262;2022-08-04T02:29:50;19.70;99.90
3784;DHT22;1907;49.238;9.262;2022-08-04T02:32:36;19.70;99.90
3784;DHT22;1907;49.238;9.262;2022-08-04T02:35:18;19.70;99.90
3784;DHT22;1907;49.238;9.262;2022-08-04T02:38:03;19.60;99.90
3784;DHT22;1907;49.238;9.262;2022-08-04T02:40:30;19.50;99.90
3784;DHT22;1907;49.238;9.262;2022-08-04T02:42:57;19.50;99.90
3784;DHT22;1907;49.238;9.262;2022-08-04T02:45:24;19.50;99.90
3784;DHT22;1907;49.238;9.262;2022-08-04T02:47:53;19.40;99.90
3784;DHT22;1907;49.238;9.262;2022-08-04T02:50:20;19.30;99.90
3784;DHT22;1907;49.238;9.262;2022-08-04T02:52:48;19.30;99.90
3784;DHT22;1907;49.238;9.262;2022-08-04T02:55:16;19.30;99.90
3784;DHT22;1907;49.238;9.262;2022-08-04T02:57:44;19.30;99.90
3784;DHT22;1907;49.238;9.262;2022-08-04T03:00:12;19.30;99.90
3784;DHT22;1907;49.238;9.262;2022-08-04T03:39:24;18.90;99.90
3784;DHT22;1907;49.238;9.262;2022-08-04T03:48:06;19.00;99.90
3784;DHT22;1907;49.238;9.262;2022-08-04T04:03:57;19.40;99.90
3784;DHT22;1907;49.238;9.262;2022-08-04T04:06:52;19.40;99.90
3784;DHT22;1907;49.238;9.262;2022-08-04T04:09:38;19.40;99.90
3784;DHT22;1907;49.238;9.262;2022-08-04T04:12:33;19.40;99.90
3784;DHT22;1907;49.238;9.262;2022-08-04T04:40:02;19.20;99.90
3784;DHT22;1907;49.238;9.262;2022-08-04T04:48:11;19.30;99.90
3784;DHT22;1907;49.238;9.262;2022-08-04T04:56:28;19.80;99.90
3784;DHT22;1907;49.238;9.262;2022-08-04T04:58:56;20.00;99.90
3784;DHT22;1907;49.238;9.262;2022-08-04T05:07:00;20.60;99.90
3784;DHT22;1907;49.238;9.262;2022-08-04T05:15:00;23.60;99.90
3784;DHT22;1907;49.238;9.262;2022-08-04T05:17:34;24.00;99.90
3784;DHT22;1907;49.238;9.262;2022-08-04T05:23:10;23.60;99.90
3784;DHT22;1907;49.238;9.262;2022-08-04T05:26:04;23.40;99.90
3784;DHT22;1907;49.238;9.262;2022-08-04T05:28:38;23.50;99.90
3784;DHT22;1907;49.238;9.262;2022-08-04T05:31:15;23.90;99.90
3784;DHT22;1907;49.238;9.262;2022-08-04T05:33:56;25.10;99.90
3784;DHT22;1907;49.238;9.262;2022-08-04T05:36:29;27.10;99.90
3784;DHT22;1907;49.238;9.262;2022-08-04T05:38:58;29.10;96.80
3784;DHT22;1907;49.238;9.262;2022-08-04T05:41:26;30.80;92.60
3784;DHT22;1907;49.238;9.262;2022-08-04T05:43:54;32.10;91.50
3784;DHT22;1907;49.238;9.262;2022-08-04T05:46:20;33.50;88.60
3784;DHT22;1907;49.238;9.262;2022-08-04T05:48:47;34.40;83.10
3784;DHT22;1907;49.238;9.262;2022-08-04T05:51:14;34.90;82.50
3784;DHT22;1907;49.238;9.262;2022-08-04T05:53:42;35.80;80.80
3784;DHT22;1907;49.238;9.262;2022-08-04T05:56:11;36.20;78.30
3784;DHT22;1907;49.238;9.262;2022-08-04T05:58:38;36.70;76.50
3784;DHT22;1907;49.238;9.262;2022-08-04T06:01:07;36.90;75.90
3784;DHT22;1907;49.238;9.262;2022-08-04T06:03:34;37.30;76.10
3784;DHT22;1907;49.238;9.262;2022-08-04T06:06:00;38.40;72.70
3784;DHT22;1907;49.238;9.262;2022-08-04T06:08:28;38.50;73.60
3784;DHT22;1907;49.238;9.262;2022-08-04T06:10:56;38.70;71.50
3784;DHT22;1907;49.238;9.262;2022-08-04T06:13:32;38.70;71.90
3784;DHT22;1907;49.238;9.262;2022-08-04T06:16:00;39.00;70.80
3784;DHT22;1907;49.238;9.262;2022-08-04T06:18:28;39.50;69.70
3784;DHT22;1907;49.238;9.262;2022-08-04T06:20:55;40.00;67.00
3784;DHT22;1907;49.238;9.262;2022-08-04T06:23:28;40.50;66.60
3784;DHT22;1907;49.238;9.262;2022-08-04T06:25:57;40.40;66.00
3784;DHT22;1907;49.238;9.262;2022-08-04T06:28:25;40.40;66.40
3784;DHT22;1907;49.238;9.262;2022-08-04T06:30:51;41.00;65.60
3784;DHT22;1907;49.238;9.262;2022-08-04T06:33:20;41.40;63.90
3784;DHT22;1907;49.238;9.262;2022-08-04T06:35:59;41.30;62.80
3784;DHT22;1907;49.238;9.262;2022-08-04T06:38:27;41.90;62.00
3784;DHT22;1907;49.238;9.262;2022-08-04T06:40:54;42.00;60.10
3784;DHT22;1907;49.238;9.262;2022-08-04T06:43:23;41.90;60.80
3784;DHT22;1907;49.238;9.262;2022-08-04T06:45:50;41.50;60.40
3784;DHT22;1907;49.238;9.262;2022-08-04T06:48:17;42.00;60.30
3784;DHT22;1907;49.238;9.262;2022-08-04T06:50:46;42.20;58.80
3784;DHT22;1907;49.238;9.262;2022-08-04T06:53:12;42.70;58.80
3784;DHT22;1907;49.238;9.262;2022-08-04T06:55:42;42.50;60.10
3784;DHT22;1907;49.238;9.262;2022-08-04T06:58:09;42.60;60.30
3784;DHT22;1907;49.238;9.262;2022-08-04T07:00:36;42.70;59.50
3784;DHT22;1907;49.238;9.262;2022-08-04T07:03:03;42.70;59.10
3784;DHT22;1907;49.238;9.262;2022-08-04T07:05:30;43.30;57.90
3784;DHT22;1907;49.238;9.262;2022-08-04T07:07:56;43.70;56.10
3784;DHT22;1907;49.238;9.262;2022-08-04T07:10:22;44.30;56.80
3784;DHT22;1907;49.238;9.262;2022-08-04T07:12:49;44.40;57.00
3784;DHT22;1907;49.238;9.262;2022-08-04T07:15:16;44.20;56.40
3784;DHT22;1907;49.238;9.262;2022-08-04T07:17:43;43.90;56.40
3784;DHT22;1907;49.238;9.262;2022-08-04T07:20:09;44.10;55.30
3784;DHT22;1907;49.238;9.262;2022-08-04T07:22:35;44.40;54.80
3784;DHT22;1907;49.238;9.262;2022-08-04T07:25:06;44.40;55.00
3784;DHT22;1907;49.238;9.262;2022-08-04T07:27:32;44.40;54.10
3784;DHT22;1907;49.238;9.262;2022-08-04T07:29:58;44.60;55.10
3784;DHT22;1907;49.238;9.262;2022-08-04T07:32:24;44.90;53.60
3784;DHT22;1907;49.238;9.262;2022-08-04T07:34:51;45.00;53.60
3784;DHT22;1907;49.238;9.262;2022-08-04T07:37:17;44.80;52.80
3784;DHT22;1907;49.238;9.262;2022-08-04T07:39:43;45.40;52.50
3784;DHT22;1907;49.238;9.262;2022-08-04T07:42:09;45.70;52.40
3784;DHT22;1907;49.238;9.262;2022-08-04T07:44:35;45.70;52.00
3784;DHT22;1907;49.238;9.262;2022-08-04T07:47:04;45.00;52.50
3784;DHT22;1907;49.238;9.262;2022-08-04T07:49:30;44.90;51.40
3784;DHT22;1907;49.238;9.262;2022-08-04T07:51:56;45.40;51.60
3784;DHT22;1907;49.238;9.262;2022-08-04T07:54:22;45.70;50.80
3784;DHT22;1907;49.238;9.262;2022-08-04T07:56:49;45.60;50.70
3784;DHT22;1907;49.238;9.262;2022-08-04T07:59:16;45.30;50.30
3784;DHT22;1907;49.238;9.262;2022-08-04T08:01:42;44.50;51.50
3784;DHT22;1907;49.238;9.262;2022-08-04T08:04:09;43.80;52.60
3784;DHT22;1907;49.238;9.262;2022-08-04T08:06:36;43.10;53.40
3784;DHT22;1907;49.238;9.262;2022-08-04T08:11:36;41.40;55.20
3784;DHT22;1907;49.238;9.262;2022-08-04T08:14:02;40.80;55.10
3784;DHT22;1907;49.238;9.262;2022-08-04T08:16:28;40.40;55.40
3784;DHT22;1907;49.238;9.262;2022-08-04T08:18:55;40.20;56.30
3784;DHT22;1907;49.238;9.262;2022-08-04T08:21:21;39.70;55.70
3784;DHT22;1907;49.238;9.262;2022-08-04T08:23:47;39.30;56.60
3784;DHT22;1907;49.238;9.262;2022-08-04T08:26:14;38.80;57.00
3784;DHT22;1907;49.238;9.262;2022-08-04T08:28:39;37.70;57.90
3784;DHT22;1907;49.238;9.262;2022-08-04T08:31:05;37.10;61.60
3784;DHT22;1907;49.238;9.262;2022-08-04T08:33:31;36.50;61.10
3784;DHT22;1907;49.238;9.262;2022-08-04T08:36:12;35.90;61.10
3784;DHT22;1907;49.238;9.262;2022-08-04T08:38:56;35.30;62.30
3784;DHT22;1907;49.238;9.262;2022-08-04T08:59:35;35.20;63.80
3784;DHT22;1907;49.238;9.262;2022-08-04T09:01:56;35.30;63.90
3784;DHT22;1907;49.238;9.262;2022-08-04T09:10:08;35.10;64.00
3784;DHT22;1907;49.238;9.262;2022-08-04T09:15:36;35.10;62.50
3784;DHT22;1907;49.238;9.262;2022-08-04T09:18:17;35.30;63.90
3784;DHT22;1907;49.238;9.262;2022-08-04T09:20:59;35.10;62.30
3784;DHT22;1907;49.238;9.262;2022-08-04T09:24:28;35.10;64.90
3784;DHT22;1907;49.238;9.262;2022-08-04T09:26:47;34.90;63.60
3784;DHT22;1907;49.238;9.262;2022-08-04T09:29:21;34.80;64.70
3784;DHT22;1907;49.238;9.262;2022-08-04T09:46:23;35.00;63.70
3784;DHT22;1907;49.238;9.262;2022-08-04T09:48:57;35.00;63.50
3784;DHT22;1907;49.238;9.262;2022-08-04T09:54:31;35.20;62.20
3784;DHT22;1907;49.238;9.262;2022-08-04T10:00:08;35.40;63.60
3784;DHT22;1907;49.238;9.262;2022-08-04T10:02:39;35.40;61.80
3784;DHT22;1907;49.238;9.262;2022-08-04T10:05:13;35.30;61.50
3784;DHT22;1907;49.238;9.262;2022-08-04T10:10:50;35.50;61.20
3784;DHT22;1907;49.238;9.262;2022-08-04T10:13:33;35.50;61.20
3784;DHT22;1907;49.238;9.262;2022-08-04T10:16:15;35.50;61.50
3784;DHT22;1907;49.238;9.262;2022-08-04T10:27:00;35.60;61.30
3784;DHT22;1907;49.238;9.262;2022-08-04T10:29:36;35.60;60.70
3784;DHT22;1907;49.238;9.262;2022-08-04T10:32:11;35.70;61.10
3784;DHT22;1907;49.238;9.262;2022-08-04T10:34:43;35.80;60.80
3784;DHT22;1907;49.238;9.262;2022-08-04T10:40:16;35.80;60.80
3784;DHT22;1907;49.238;9.262;2022-08-04T10:45:35;36.10;60.20
3784;DHT22;1907;49.238;9.262;2022-08-04T10:48:56;36.20;59.80
3784;DHT22;1907;49.238;9.262;2022-08-04T10:53:54;36.60;59.00
3784;DHT22;1907;49.238;9.262;2022-08-04T10:56:29;37.20;58.80
3784;DHT22;1907;49.238;9.262;2022-08-04T10:59:03;37.50;58.20
3784;DHT22;1907;49.238;9.262;2022-08-04T11:01:34;37.90;57.60
3784;DHT22;1907;49.238;9.262;2022-08-04T11:04:07;38.10;57.40
3784;DHT22;1907;49.238;9.262;2022-08-04T11:06:35;38.80;56.50
3784;DHT22;1907;49.238;9.262;2022-08-04T11:09:02;39.10;56.30
3784;DHT22;1907;49.238;9.262;2022-08-04T11:11:38;39.40;55.80
3784;DHT22;1907;49.238;9.262;2022-08-04T11:14:15;39.50;53.90
3784;DHT22;1907;49.238;9.262;2022-08-04T11:22:07;40.70;52.60
3784;DHT22;1907;49.238;9.262;2022-08-04T11:30:52;41.30;53.70
3784;DHT22;1907;49.238;9.262;2022-08-04T11:33:43;41.50;53.00
3784;DHT22;1907;49.238;9.262;2022-08-04T11:36:35;41.50;52.00
3784;DHT22;1907;49.238;9.262;2022-08-04T11:39:30;41.30;51.60
3784;DHT22;1907;49.238;9.262;2022-08-04T11:42:05;41.30;52.30
3784;DHT22;1907;49.238;9.262;2022-08-04T11:44:46;41.30;52.80
3784;DHT22;1907;49.238;9.262;2022-08-04T11:52:45;40.40;53.30
3784;DHT22;1907;49.238;9.262;2022-08-04T11:55:12;40.10;54.20
3784;DHT22;1907;49.238;9.262;2022-08-04T11:57:39;40.00;53.60
3784;DHT22;1907;49.238;9.262;2022-08-04T12:00:08;39.80;53.50
3784;DHT22;1907;49.238;9.262;2022-08-04T12:05:26;39.10;53.00
3784;DHT22;1907;49.238;9.262;2022-08-04T12:08:21;38.60;55.20
3784;DHT22;1907;49.238;9.262;2022-08-04T12:16:31;38.40;55.10
3784;DHT22;1907;49.238;9.262;2022-08-04T12:19:54;38.30;54.50
3784;DHT22;1907;49.238;9.262;2022-08-04T12:21:57;38.30;55.00
3784;DHT22;1907;49.238;9.262;2022-08-04T12:24:36;38.10;56.00
3784;DHT22;1907;49.238;9.262;2022-08-04T12:29:39;38.10;55.80
3784;DHT22;1907;49.238;9.262;2022-08-04T12:32:36;38.20;56.30
3784;DHT22;1907;49.238;9.262;2022-08-04T12:40:22;37.90;56.30
3784;DHT22;1907;49.238;9.262;2022-08-04T12:45:24;38.10;55.90
3784;DHT22;1907;49.238;9.262;2022-08-04T12:47:52;38.20;55.60
3784;DHT22;1907;49.238;9.262;2022-08-04T12:50:19;38.20;54.90
3784;DHT22;1907;49.238;9.262;2022-08-04T12:52:50;38.30;57.00
3784;DHT22;1907;49.238;9.262;2022-08-04T12:55:20;38.30;56.50
3784;DHT22;1907;49.238;9.262;2022-08-04T12:57:47;38.30;56.90
3784;DHT22;1907;49.238;9.262;2022-08-04T13:00:32;38.30;55.40
3784;DHT22;1907;49.238;9.262;2022-08-04T13:03:05;38.20;56.20
3784;DHT22;1907;49.238;9.262;2022-08-04T13:05:33;38.10;55.80
3784;DHT22;1907;49.238;9.262;2022-08-04T13:08:01;38.00;55.90
3784;DHT22;1907;49.238;9.262;2022-08-04T13:10:29;38.10;56.40
3784;DHT22;1907;49.238;9.262;2022-08-04T13:12:58;38.20;55.60
3784;DHT22;1907;49.238;9.262;2022-08-04T13:15:26;38.30;56.70
3784;DHT22;1907;49.238;9.262;2022-08-04T13:20:30;38.30;55.10
3784;DHT22;1907;49.238;9.262;2022-08-04T13:25:33;38.40;54.80
3784;DHT22;1907;49.238;9.262;2022-08-04T13:28:00;38.30;55.50
3784;DHT22;1907;49.238;9.262;2022-08-04T13:30:27;38.20;55.20
3784;DHT22;1907;49.238;9.262;2022-08-04T13:33:01;38.00;53.70
3784;DHT22;1907;49.238;9.262;2022-08-04T13:35:28;37.90;56.70
3784;DHT22;1907;49.238;9.262;2022-08-04T13:37:55;37.90;55.80
3784;DHT22;1907;49.238;9.262;2022-08-04T13:40:24;37.90;55.10
3784;DHT22;1907;49.238;9.262;2022-08-04T13:42:52;37.80;54.30
3784;DHT22;1907;49.238;9.262;2022-08-04T13:45:22;37.70;54.90
3784;DHT22;1907;49.238;9.262;2022-08-04T13:47:55;37.60;56.10
3784;DHT22;1907;49.238;9.262;2022-08-04T13:50:25;37.60;56.60
3784;DHT22;1907;49.238;9.262;2022-08-04T13:52:53;37.70;57.00
3784;DHT22;1907;49.238;9.262;2022-08-04T13:58:12;37.90;56.70
3784;DHT22;1907;49.238;9.262;2022-08-04T14:00:48;37.90;56.10
3784;DHT22;1907;49.238;9.262;2022-08-04T14:03:51;37.90;55.70
3784;DHT22;1907;49.238;9.262;2022-08-04T14:14:03;37.60;55.90
3784;DHT22;1907;49.238;9.262;2022-08-04T14:16:36;37.70;57.30
3784;DHT22;1907;49.238;9.262;2022-08-04T14:19:02;37.60;55.10
3784;DHT22;1907;49.238;9.262;2022-08-04T14:21:34;37.60;58.60
3784;DHT22;1907;49.238;9.262;2022-08-04T14:24:00;37.50;55.40
3784;DHT22;1907;49.238;9.262;2022-08-04T14:26:33;37.50;55.40
3784;DHT22;1907;49.238;9.262;2022-08-04T14:29:13;37.50;55.60
3784;DHT22;1907;49.238;9.262;2022-08-04T14:31:40;37.50;54.70
3784;DHT22;1907;49.238;9.262;2022-08-04T14:34:06;37.50;55.50
3784;DHT22;1907;49.238;9.262;2022-08-04T14:36:39;37.50;54.80
3784;DHT22;1907;49.238;9.262;2022-08-04T14:39:06;37.40;56.90
3784;DHT22;1907;49.238;9.262;2022-08-04T14:41:47;37.40;57.30
3784;DHT22;1907;49.238;9.262;2022-08-04T14:44:13;37.50;55.10
3784;DHT22;1907;49.238;9.262;2022-08-04T14:46:53;37.60;54.50
3784;DHT22;1907;49.238;9.262;2022-08-04T14:49:19;37.70;55.70
3784;DHT22;1907;49.238;9.262;2022-08-04T14:51:54;37.70;55.30
3784;DHT22;1907;49.238;9.262;2022-08-04T14:56:57;37.70;54.20
3784;DHT22;1907;49.238;9.262;2022-08-04T14:59:25;37.60;55.20
3784;DHT22;1907;49.238;9.262;2022-08-04T15:01:52;37.50;56.00
3784;DHT22;1907;49.238;9.262;2022-08-04T15:04:21;37.40;55.30
3784;DHT22;1907;49.238;9.262;2022-08-04T15:06:48;37.30;57.90
3784;DHT22;1907;49.238;9.262;2022-08-04T15:09:13;37.30;56.00
3784;DHT22;1907;49.238;9.262;2022-08-04T15:11:39;37.30;55.00
3784;DHT22;1907;49.238;9.262;2022-08-04T15:14:05;37.20;53.70
3784;DHT22;1907;49.238;9.262;2022-08-04T15:16:33;37.20;54.00
3784;DHT22;1907;49.238;9.262;2022-08-04T15:18:59;37.20;54.00
3784;DHT22;1907;49.238;9.262;2022-08-04T15:21:27;37.20;54.10
3784;DHT22;1907;49.238;9.262;2022-08-04T15:23:54;37.10;55.40
3784;DHT22;1907;49.238;9.262;2022-08-04T15:26:41;37.00;55.00
3784;DHT22;1907;49.238;9.262;2022-08-04T15:29:19;37.00;55.30
3784;DHT22;1907;49.238;9.262;2022-08-04T15:31:49;37.00;55.40
3784;DHT22;1907;49.238;9.262;2022-08-04T15:34:16;36.90;55.80
3784;DHT22;1907;49.238;9.262;2022-08-04T15:41:46;36.60;54.80
3784;DHT22;1907;49.238;9.262;2022-08-04T15:49:28;36.40;54.30
3784;DHT22;1907;49.238;9.262;2022-08-04T15:52:04;36.30;54.70
3784;DHT22;1907;49.238;9.262;2022-08-04T15:54:30;36.40;55.00
3784;DHT22;1907;49.238;9.262;2022-08-04T15:56:56;36.30;55.70
3784;DHT22;1907;49.238;9.262;2022-08-04T15:59:57;36.30;57.10
3784;DHT22;1907;49.238;9.262;2022-08-04T16:07:59;36.20;55.70
3784;DHT22;1907;49.238;9.262;2022-08-04T16:12:56;36.20;55.20
3784;DHT22;1907;49.238;9.262;2022-08-04T16:15:39;36.20;57.50
3784;DHT22;1907;49.238;9.262;2022-08-04T16:18:05;36.10;57.80
3784;DHT22;1907;49.238;9.262;2022-08-04T16:20:32;36.00;55.40
3784;DHT22;1907;49.238;9.262;2022-08-04T16:25:44;35.90;56.80
3784;DHT22;1907;49.238;9.262;2022-08-04T16:31:04;35.70;56.60
3784;DHT22;1907;49.238;9.262;2022-08-04T16:33:30;35.60;56.10
3784;DHT22;1907;49.238;9.262;2022-08-04T16:35:57;35.60;57.30
3784;DHT22;1907;49.238;9.262;2022-08-04T16:38:23;35.50;57.80
3784;DHT22;1907;49.238;9.262;2022-08-04T16:40:56;35.40;58.20
3784;DHT22;1907;49.238;9.262;2022-08-04T16:43:27;35.40;57.30
3784;DHT22;1907;49.238;9.262;2022-08-04T16:45:57;35.30;56.30
3784;DHT22;1907;49.238;9.262;2022-08-04T16:48:35;35.30;56.10
3784;DHT22;1907;49.238;9.262;2022-08-04T16:53:32;35.20;57.80
3784;DHT22;1907;49.238;9.262;2022-08-04T16:55:58;35.10;57.90
3784;DHT22;1907;49.238;9.262;2022-08-04T16:58:27;35.10;58.10
3784;DHT22;1907;49.238;9.262;2022-08-04T17:00:53;35.00;57.60
3784;DHT22;1907;49.238;9.262;2022-08-04T17:03:20;34.90;59.10
3784;DHT22;1907;49.238;9.262;2022-08-04T17:05:45;34.90;58.40
3784;DHT22;1907;49.238;9.262;2022-08-04T17:08:12;34.80;59.30
3784;DHT22;1907;49.238;9.262;2022-08-04T17:10:46;34.80;58.50
3784;DHT22;1907;49.238;9.262;2022-08-04T17:16:02;34.70;58.20
3784;DHT22;1907;49.238;9.262;2022-08-04T17:18:32;34.60;59.10
3784;DHT22;1907;49.238;9.262;2022-08-04T17:21:06;34.50;59.50
3784;DHT22;1907;49.238;9.262;2022-08-04T17:23:39;34.40;59.00
3784;DHT22;1907;49.238;9.262;2022-08-04T17:26:10;34.40;59.30
3784;DHT22;1907;49.238;9.262;2022-08-04T17:28:37;34.30;58.50
3784;DHT22;1907;49.238;9.262;2022-08-04T17:31:04;34.30;57.90
3784;DHT22;1907;49.238;9.262;2022-08-04T17:33:31;34.20;58.50
3784;DHT22;1907;49.238;9.262;2022-08-04T17:36:01;34.10;58.50
3784;DHT22;1907;49.238;9.262;2022-08-04T17:38:39;34.00;60.10
3784;DHT22;1907;49.238;9.262;2022-08-04T17:41:08;33.90;59.10
3784;DHT22;1907;49.238;9.262;2022-08-04T17:43:45;33.80;59.10
3784;DHT22;1907;49.238;9.262;2022-08-04T17:46:41;33.70;59.90
3784;DHT22;1907;49.238;9.262;2022-08-04T17:49:09;33.70;58.80
3784;DHT22;1907;49.238;9.262;2022-08-04T17:54:12;33.60;59.50
3784;DHT22;1907;49.238;9.262;2022-08-04T17:56:45;33.50;60.70
3784;DHT22;1907;49.238;9.262;2022-08-04T17:59:39;33.40;60.40
3784;DHT22;1907;49.238;9.262;2022-08-04T18:02:05;33.40;60.80
3784;DHT22;1907;49.238;9.262;2022-08-04T18:07:18;33.10;61.70
3784;DHT22;1907;49.238;9.262;2022-08-04T18:14:49;32.80;62.60
3784;DHT22;1907;49.238;9.262;2022-08-04T18:19:58;32.50;62.50
3784;DHT22;1907;49.238;9.262;2022-08-04T18:22:24;32.30;62.70
3784;DHT22;1907;49.238;9.262;2022-08-04T18:24:50;32.30;63.00
3784;DHT22;1907;49.238;9.262;2022-08-04T18:27:17;32.20;63.10
3784;DHT22;1907;49.238;9.262;2022-08-04T18:29:42;32.10;63.20
3784;DHT22;1907;49.238;9.262;2022-08-04T18:32:08;32.00;63.20
3784;DHT22;1907;49.238;9.262;2022-08-04T18:34:35;31.90;63.20
3784;DHT22;1907;49.238;9.262;2022-08-04T18:37:01;31.80;63.40
3784;DHT22;1907;49.238;9.262;2022-08-04T18:39:26;31.70;64.10
3784;DHT22;1907;49.238;9.262;2022-08-04T18:41:54;31.60;64.90
3784;DHT22;1907;49.238;9.262;2022-08-04T18:44:21;31.50;65.10
3784;DHT22;1907;49.238;9.262;2022-08-04T18:46:46;31.40;65.40
3784;DHT22;1907;49.238;9.262;2022-08-04T18:49:12;31.20;66.40
3784;DHT22;1907;49.238;9.262;2022-08-04T18:51:37;31.00;66.90
3784;DHT22;1907;49.238;9.262;2022-08-04T18:54:04;30.90;66.90
3784;DHT22;1907;49.238;9.262;2022-08-04T18:56:31;30.90;66.20
3784;DHT22;1907;49.238;9.262;2022-08-04T18:58:59;30.90;65.80
3784;DHT22;1907;49.238;9.262;2022-08-04T19:01:25;30.90;67.00
3784;DHT22;1907;49.238;9.262;2022-08-04T19:03:51;30.90;66.60
3784;DHT22;1907;49.238;9.262;2022-08-04T19:06:18;30.80;66.30
3784;DHT22;1907;49.238;9.262;2022-08-04T19:08:43;30.70;66.60
3784;DHT22;1907;49.238;9.262;2022-08-04T19:11:09;30.60;65.90
3784;DHT22;1907;49.238;9.262;2022-08-04T19:13:35;30.50;67.20
3784;DHT22;1907;49.238;9.262;2022-08-04T19:16:00;30.30;67.50
3784;DHT22;1907;49.238;9.262;2022-08-04T19:18:26;30.10;67.80
3784;DHT22;1907;49.238;9.262;2022-08-04T19:20:52;29.90;68.00
3784;DHT22;1907;49.238;9.262;2022-08-04T19:23:18;29.70;68.30
3784;DHT22;1907;49.238;9.262;2022-08-04T19:25:45;29.60;68.40
3784;DHT22;1907;49.238;9.262;2022-08-04T19:28:11;29.60;67.60
3784;DHT22;1907;49.238;9.262;2022-08-04T19:30:37;29.60;67.60
3784;DHT22;1907;49.238;9.262;2022-08-04T19:33:02;29.50;67.30
3784;DHT22;1907;49.238;9.262;2022-08-04T19:35:28;29.50;67.30
3784;DHT22;1907;49.238;9.262;2022-08-04T19:37:53;29.40;67.60
3784;DHT22;1907;49.238;9.262;2022-08-04T19:40:19;29.30;68.60
3784;DHT22;1907;49.238;9.262;2022-08-04T19:42:45;29.20;69.40
3784;DHT22;1907;49.238;9.262;2022-08-04T19:45:11;29.00;70.60
3784;DHT22;1907;49.238;9.262;2022-08-04T19:47:36;28.80;72.10
3784;DHT22;1907;49.238;9.262;2022-08-04T19:50:04;28.70;73.90
3784;DHT22;1907;49.238;9.262;2022-08-04T19:52:30;28.60;72.60
3784;DHT22;1907;49.238;9.262;2022-08-04T19:54:56;28.60;72.50
3784;DHT22;1907;49.238;9.262;2022-08-04T19:57:22;28.60;72.50
3784;DHT22;1907;49.238;9.262;2022-08-04T19:59:47;28.60;72.50
3784;DHT22;1907;49.238;9.262;2022-08-04T20:02:13;28.50;72.60
3784;DHT22;1907;49.238;9.262;2022-08-04T20:04:38;28.60;73.90
3784;DHT22;1907;49.238;9.262;2022-08-04T20:07:04;28.50;73.90
3784;DHT22;1907;49.238;9.262;2022-08-04T20:09:30;28.50;74.30
3784;DHT22;1907;49.238;9.262;2022-08-04T20:11:56;28.40;74.70
3784;DHT22;1907;49.238;9.262;2022-08-04T20:14:24;28.20;74.70
3784;DHT22;1907;49.238;9.262;2022-08-04T20:16:49;28.10;75.20
3784;DHT22;1907;49.238;9.262;2022-08-04T20:19:15;28.00;75.50
3784;DHT22;1907;49.238;9.262;2022-08-04T20:21:40;27.80;75.60
3784;DHT22;1907;49.238;9.262;2022-08-04T20:24:06;27.70;76.30
3784;DHT22;1907;49.238;9.262;2022-08-04T20:26:32;27.60;76.80
3784;DHT22;1907;49.238;9.262;2022-08-04T20:28:57;27.50;77.30
3784;DHT22;1907;49.238;9.262;2022-08-04T20:31:23;27.40;78.10
3784;DHT22;1907;49.238;9.262;2022-08-04T20:33:48;27.20;78.60
3784;DHT22;1907;49.238;9.262;2022-08-04T20:36:14;27.10;79.00
3784;DHT22;1907;49.238;9.262;2022-08-04T20:38:40;27.00;79.00
3784;DHT22;1907;49.238;9.262;2022-08-04T20:41:05;26.90;79.00
3784;DHT22;1907;49.238;9.262;2022-08-04T20:43:32;26.80;79.40
3784;DHT22;1907;49.238;9.262;2022-08-04T20:45:58;26.80;79.00
3784;DHT22;1907;49.238;9.262;2022-08-04T20:48:27;26.80;78.60
3784;DHT22;1907;49.238;9.262;2022-08-04T20:50:53;26.70;78.90
3784;DHT22;1907;49.238;9.262;2022-08-04T20:53:19;26.70;79.20
3784;DHT22;1907;49.238;9.262;2022-08-04T20:55:45;26.70;79.40
3784;DHT22;1907;49.238;9.262;2022-08-04T20:58:10;26.80;79.60
3784;DHT22;1907;49.238;9.262;2022-08-04T21:00:36;26.80;79.50
3784;DHT22;1907;49.238;9.262;2022-08-04T21:03:01;26.80;79.50
3784;DHT22;1907;49.238;9.262;2022-08-04T21:05:28;26.80;79.40
3784;DHT22;1907;49.238;9.262;2022-08-04T21:07:56;26.80;80.00
3784;DHT22;1907;49.238;9.262;2022-08-04T21:10:23;26.70;81.10
3784;DHT22;1907;49.238;9.262;2022-08-04T21:12:49;26.60;81.10
3784;DHT22;1907;49.238;9.262;2022-08-04T21:15:14;26.40;81.90
3784;DHT22;1907;49.238;9.262;2022-08-04T21:17:40;26.30;82.00
3784;DHT22;1907;49.238;9.262;2022-08-04T21:20:06;26.20;82.50
3784;DHT22;1907;49.238;9.262;2022-08-04T21:22:32;26.10;82.90
3784;DHT22;1907;49.238;9.262;2022-08-04T21:24:58;26.00;83.90
3784;DHT22;1907;49.238;9.262;2022-08-04T21:27:23;25.90;83.30
3784;DHT22;1907;49.238;9.262;2022-08-04T21:29:49;25.90;83.50